KJCT/JCT METAR and TAF weather

Enter ICAO airport designator
Station Type Date Time Source
KJCT METAR 2018/12/18 18:51 UTC NOAA

KJCT 181851Z AUTO 20009KT 10SM CLR 17/08 A2999 RMK AO2 SLP139 T01670083


Station Type Date Time Source
KJCT Decoded METAR 2018/12/18 18:51 UTC NOAA

KIMBLE COUNTY AIRPORT, TX, United States (KJCT) 30-31N 099-46W 523M
Dec 18, 2018 - 01:51 PM EST / 2018.12.18 1851 UTC
Wind: from the SSW (200 degrees) at 10 MPH (9 KT):0
Visibility: 10 mile(s):0
Sky conditions: clear
Temperature: 62.1 F (16.7 C)
Dew Point: 46.9 F (8.3 C)
Relative Humidity: 57%
Pressure (altimeter): 29.99 in. Hg (1015 hPa)
ob: KJCT 181851Z AUTO 20009KT 10SM CLR 17/08 A2999 RMK AO2 SLP139 T01670083
cycle: 19

Station Type Date Time Source
KJCT TAF 2018/12/18 18:30 UTC NOAA

TAF KJCT 181727Z 1818/1918 18009KT P6SM SCT100
FM182300 17005KT P6SM BKN100
FM190300 VRB04KT P6SM VCSH SCT015 OVC050
FM190600 VRB03KT P6SM VCSH OVC010
FM190900 VRB03KT P6SM OVC007
FM191600 24005KT P6SM BKN015


Example: see airport list